Time;durP1;ratioP1;P1;durP2;ratioP2;P2;SDS_P1;SDS_P2;PMS_P1;PMS_P2;Temp;Humidity;BMP_temperature;BMP_pressure;BME280_temperature;BME280_humidity;BME280_pressure;Samples;Min_cycle;Max_cycle;Signal;HPM_P1;HPM_P2
2022/10/13 00:00:00;;;;;;;18.05;10.60;;;;;;;11.63;100.00;101341.00;5058301;28;20096;-85
2022/10/13 00:02:25;;;;;;;16.38;10.00;;;;;;;11.64;100.00;101337.44;5042451;28;20172;-86
2022/10/13 00:04:51;;;;;;;12.52;9.73;;;;;;;11.66;100.00;101337.31;5041221;28;20132;-86
2022/10/13 00:07:16;;;;;;;16.42;10.65;;;;;;;11.62;100.00;101335.91;5045030;28;20742;-85
2022/10/13 00:09:41;;;;;;;11.85;10.43;;;;;;;11.54;100.00;101339.16;5042819;28;20032;-85
2022/10/13 00:12:07;;;;;;;13.20;9.63;;;;;;;11.48;100.00;101331.84;5047336;28;20100;-84
2022/10/13 00:14:32;;;;;;;16.60;10.30;;;;;;;11.51;100.00;101336.81;5043690;28;20410;-85
2022/10/13 00:16:58;;;;;;;11.50;9.48;;;;;;;11.47;100.00;101335.41;5043152;28;20048;-85
2022/10/13 00:19:23;;;;;;;13.85;10.60;;;;;;;11.50;100.00;101334.34;5045494;28;20041;-85
2022/10/13 00:21:48;;;;;;;13.95;9.45;;;;;;;11.53;100.00;101337.50;5042331;28;20037;-86
2022/10/13 00:24:14;;;;;;;15.38;9.75;;;;;;;11.55;100.00;101333.00;5044501;28;20493;-85
2022/10/13 00:26:39;;;;;;;15.75;9.85;;;;;;;11.52;100.00;101338.47;5043135;28;20025;-86
2022/10/13 00:29:04;;;;;;;14.30;9.82;;;;;;;11.49;100.00;101338.72;5045624;28;20044;-85
2022/10/13 00:31:31;;;;;;;13.25;9.27;;;;;;;11.47;100.00;101332.81;5044753;28;20437;-85
2022/10/13 00:33:58;;;;;;;18.33;10.73;;;;;;;11.47;100.00;101335.41;5043122;28;20072;-85
2022/10/13 00:36:24;;;;;;;13.60;10.50;;;;;;;11.45;100.00;101332.09;5054979;28;20025;-85
2022/10/13 00:38:53;;;;;;;14.75;10.98;;;;;;;11.40;100.00;101331.66;5067433;28;20044;-85
2022/10/13 00:41:19;;;;;;;14.90;10.13;;;;;;;11.34;100.00;101323.56;5053377;28;20052;-85
2022/10/13 00:43:51;;;;;;;16.50;10.68;;;;;;;11.36;100.00;101330.28;5048543;28;20021;-85
2022/10/13 00:46:16;;;;;;;13.48;10.07;;;;;;;11.38;100.00;101319.69;5045009;28;20353;-85
2022/10/13 00:48:43;;;;;;;19.00;11.07;;;;;;;11.35;100.00;101314.75;5041563;28;20048;-85
2022/10/13 00:51:11;;;;;;;18.42;12.40;;;;;;;11.67;100.00;101309.44;5044863;28;20029;-86
2022/10/13 00:53:38;;;;;;;15.45;11.65;;;;;;;11.98;100.00;101307.63;5043298;28;20090;-85
2022/10/13 00:56:08;;;;;;;19.58;11.95;;;;;;;11.94;100.00;101309.69;5041457;28;20139;-86
2022/10/13 00:58:36;;;;;;;17.58;11.40;;;;;;;11.80;100.00;101310.88;5042351;28;20412;-84
2022/10/13 01:01:04;;;;;;;15.60;11.02;;;;;;;11.67;100.00;101299.81;5045981;28;20025;-86
2022/10/13 01:03:30;;;;;;;15.20;11.05;;;;;;;11.59;100.00;101305.69;5039824;28;20030;-85
2022/10/13 01:05:59;;;;;;;14.60;11.02;;;;;;;11.50;100.00;101310.84;5041168;28;20032;-85
2022/10/13 01:08:26;;;;;;;18.42;11.80;;;;;;;11.49;100.00;101302.19;5043050;28;20036;-85
2022/10/13 01:10:58;;;;;;;19.45;11.32;;;;;;;11.52;100.00;101295.88;5039004;28;20056;-86
2022/10/13 01:13:35;;;;;;;15.98;11.48;;;;;;;11.54;100.00;101299.19;5041355;28;20033;-85
2022/10/13 01:16:26;;;;;;;19.88;11.68;;;;;;;11.47;100.00;101283.22;5043399;28;20107;-85
2022/10/13 01:19:07;;;;;;;12.45;11.15;;;;;;;11.44;100.00;101290.50;5038266;28;20479;-84
2022/10/13 01:21:51;;;;;;;16.73;11.70;;;;;;;11.39;100.00;101280.44;5044587;28;20029;-85
2022/10/13 01:24:38;;;;;;;18.27;10.95;;;;;;;11.35;100.00;101288.66;5034396;28;20096;-86
2022/10/13 01:27:28;;;;;;;16.38;10.80;;;;;;;11.32;100.00;101281.13;5043980;28;20033;-85
2022/10/13 01:30:07;;;;;;;15.48;11.57;;;;;;;11.27;100.00;101277.09;5042292;28;20029;-84
2022/10/13 01:32:52;;;;;;;13.60;11.10;;;;;;;11.26;100.00;101277.25;5041498;28;20037;-84
2022/10/13 01:35:36;;;;;;;12.30;10.77;;;;;;;11.24;100.00;101274.75;5041011;28;20075;-84
2022/10/13 01:38:24;;;;;;;15.25;11.65;;;;;;;11.20;100.00;101273.34;5047001;28;20040;-85
2022/10/13 01:41:13;;;;;;;16.40;12.32;;;;;;;11.17;100.00;101273.63;5042115;28;20093;-86
2022/10/13 01:43:51;;;;;;;18.08;12.45;;;;;;;11.17;100.00;101280.63;5047315;28;20121;-86
2022/10/13 01:46:22;;;;;;;21.20;12.63;;;;;;;11.11;100.00;101278.50;5045520;28;20032;-85
2022/10/13 01:48:50;;;;;;;17.80;12.63;;;;;;;11.12;100.00;101267.13;5045923;28;20029;-85
2022/10/13 01:51:19;;;;;;;19.48;13.23;;;;;;;11.19;100.00;101263.88;5045510;28;20591;-85
2022/10/13 01:53:46;;;;;;;19.02;12.98;;;;;;;11.27;100.00;101260.63;5045039;28;20117;-84
2022/10/13 01:56:11;;;;;;;17.70;11.63;;;;;;;11.29;100.00;101259.53;5047562;28;20430;-84
2022/10/13 01:58:37;;;;;;;18.92;13.18;;;;;;;11.29;100.00;101256.09;5047678;28;20053;-85
2022/10/13 02:01:08;;;;;;;14.85;11.50;;;;;;;11.26;100.00;101256.38;5048868;28;20033;-84
2022/10/13 02:03:51;;;;;;;15.23;11.82;;;;;;;11.27;100.00;101245.81;5047814;28;20120;-85
2022/10/13 02:06:24;;;;;;;17.00;12.73;;;;;;;11.25;100.00;101245.09;5044026;28;20036;-85
2022/10/13 02:09:17;;;;;;;20.25;11.65;;;;;;;11.27;100.00;101245.81;5047239;28;20033;-85
2022/10/13 02:11:50;;;;;;;20.33;11.18;;;;;;;11.24;100.00;101246.06;5045061;28;20114;-85
2022/10/13 02:14:22;;;;;;;16.92;12.98;;;;;;;11.22;100.00;101237.53;5047046;28;20029;-85
2022/10/13 02:16:49;;;;;;;15.80;12.20;;;;;;;11.22;100.00;101239.31;5048581;28;20475;-84
2022/10/13 02:19:17;;;;;;;15.10;11.52;;;;;;;11.18;100.00;101237.94;5042530;28;20167;-84
2022/10/13 02:21:43;;;;;;;15.10;11.85;;;;;;;11.13;100.00;101238.31;5045810;28;20082;-84
2022/10/13 02:24:09;;;;;;;16.15;11.75;;;;;;;11.30;100.00;101236.91;5043877;28;20033;-84
2022/10/13 02:26:35;;;;;;;14.13;11.90;;;;;;;11.29;100.00;101233.47;5043960;28;20502;-84
2022/10/13 02:29:12;;;;;;;18.13;12.25;;;;;;;11.29;100.00;101235.25;5046263;28;21554;-84
2022/10/13 02:31:39;;;;;;;15.25;13.07;;;;;;;11.20;100.00;101223.81;5048218;28;20040;-84
2022/10/13 02:34:05;;;;;;;13.05;11.38;;;;;;;11.18;100.00;101236.16;5046659;28;20043;-84
2022/10/13 02:36:31;;;;;;;16.25;13.02;;;;;;;11.14;100.00;101237.34;5042135;28;20108;-84
2022/10/13 02:38:56;;;;;;;17.45;12.07;;;;;;;11.04;100.00;101241.69;5060567;28;20048;-84
2022/10/13 02:41:21;;;;;;;17.00;12.18;;;;;;;10.95;100.00;101245.06;5303804;22;20639;-84
2022/10/13 02:43:47;;;;;;;16.80;13.20;;;;;;;10.92;100.00;101242.69;5011603;28;20059;-85
2022/10/13 02:46:12;;;;;;;16.42;13.07;;;;;;;10.89;100.00;101237.75;5010442;28;20199;-85
2022/10/13 02:48:38;;;;;;;23.50;14.70;;;;;;;10.87;100.00;101242.28;5029499;28;20417;-85
2022/10/13 02:51:03;;;;;;;14.55;12.95;;;;;;;10.87;100.00;101242.28;5029746;28;20041;-84
2022/10/13 02:53:29;;;;;;;16.38;11.32;;;;;;;10.84;100.00;101239.94;5012030;28;20546;-85
2022/10/13 02:55:54;;;;;;;16.50;13.52;;;;;;;10.80;100.00;101236.75;5029525;28;20027;-85
2022/10/13 02:58:19;;;;;;;15.50;13.35;;;;;;;10.80;100.00;101243.75;5029426;28;20473;-85
2022/10/13 03:00:45;;;;;;;17.50;13.65;;;;;;;10.81;100.00;101241.00;5029610;28;20033;-85
2022/10/13 03:03:11;;;;;;;16.75;13.48;;;;;;;10.80;100.00;101236.75;5029053;28;20117;-85
2022/10/13 03:05:36;;;;;;;18.48;14.60;;;;;;;10.75;100.00;101244.13;5011308;28;20096;-85
2022/10/13 03:08:02;;;;;;;17.80;13.52;;;;;;;10.74;100.00;101244.25;5011639;28;20018;-85
2022/10/13 03:10:29;;;;;;;18.08;13.70;;;;;;;10.70;100.00;101240.25;5029889;28;20083;-85
2022/10/13 03:12:55;;;;;;;20.35;13.90;;;;;;;10.71;100.00;101240.13;5011413;28;20112;-85
2022/10/13 03:15:21;;;;;;;16.55;13.35;;;;;;;10.72;100.00;101246.16;5011138;28;20152;-85
2022/10/13 03:17:46;;;;;;;15.15;12.60;;;;;;;10.69;100.00;101239.41;5010677;28;20036;-84
2022/10/13 03:20:12;;;;;;;18.13;13.98;;;;;;;10.72;100.00;101233.94;5029182;28;20079;-84
2022/10/13 03:22:37;;;;;;;18.20;13.80;;;;;;;10.72;100.00;101239.16;5029577;28;20022;-84
2022/10/13 03:25:03;;;;;;;15.85;13.57;;;;;;;10.65;100.00;101232.78;5011458;28;20413;-84
2022/10/13 03:27:28;;;;;;;20.92;13.30;;;;;;;10.62;100.00;101238.25;5028854;28;20069;-84
2022/10/13 03:29:54;;;;;;;19.13;14.65;;;;;;;10.58;100.00;101236.84;5034168;28;20079;-84
2022/10/13 03:32:19;;;;;;;20.80;14.73;;;;;;;10.59;100.00;101235.91;5052801;28;20077;-84
2022/10/13 03:34:44;;;;;;;21.85;14.32;;;;;;;10.61;100.00;101231.41;5036140;28;20036;-84
2022/10/13 03:37:10;;;;;;;16.88;14.45;;;;;;;10.62;100.00;101230.44;5012857;28;20358;-85
2022/10/13 03:39:35;;;;;;;18.88;14.00;;;;;;;10.58;100.00;101237.69;5028804;28;20029;-86
2022/10/13 03:42:01;;;;;;;25.25;14.77;;;;;;;10.56;100.00;101233.53;5011204;28;20045;-85
2022/10/13 03:44:26;;;;;;;17.33;13.93;;;;;;;10.52;100.00;101234.75;5029993;28;20077;-85
2022/10/13 03:46:51;;;;;;;17.95;14.13;;;;;;;10.52;100.00;101229.53;5011589;28;20021;-84
2022/10/13 03:49:17;;;;;;;16.55;13.32;;;;;;;10.48;100.00;101233.34;5029258;28;20083;-84
2022/10/13 03:51:43;;;;;;;21.17;13.52;;;;;;;10.46;100.00;101227.44;5029303;28;20029;-84
2022/10/13 03:54:12;;;;;;;18.42;14.07;;;;;;;10.42;100.00;101224.25;5029291;28;20017;-85
2022/10/13 03:56:38;;;;;;;18.35;14.05;;;;;;;10.41;100.00;101220.00;5028470;28;20060;-84
2022/10/13 03:59:04;;;;;;;19.08;14.43;;;;;;;10.41;100.00;101213.94;5028867;28;20029;-83
2022/10/13 04:01:31;;;;;;;22.58;14.25;;;;;;;10.38;100.00;101219.44;5010776;28;20108;-84
2022/10/13 04:03:58;;;;;;;19.85;15.02;;;;;;;10.30;100.00;101215.69;5028953;28;20045;-84
2022/10/13 04:06:25;;;;;;;19.80;14.85;;;;;;;10.31;100.00;101208.69;5028754;28;20029;-85
2022/10/13 04:08:51;;;;;;;21.67;14.77;;;;;;;10.38;100.00;101211.63;5028767;28;20029;-85
2022/10/13 04:11:18;;;;;;;16.58;13.57;;;;;;;10.45;100.00;101216.19;5010657;28;20029;-84
2022/10/13 04:13:43;;;;;;;15.48;12.48;;;;;;;10.43;100.00;101214.66;5028693;28;20026;-84
2022/10/13 04:16:14;;;;;;;21.02;14.27;;;;;;;10.37;100.00;101213.41;5028258;28;20056;-84
2022/10/13 04:18:39;;;;;;;18.40;14.05;;;;;;;10.34;100.00;101213.66;5028666;28;20028;-84
2022/10/13 04:21:09;;;;;;;17.42;13.80;;;;;;;10.34;100.00;101212.81;5029089;28;20025;-84
2022/10/13 04:23:36;;;;;;;17.98;14.20;;;;;;;10.30;100.00;101218.28;5028755;28;20026;-85
2022/10/13 04:26:02;;;;;;;17.30;13.80;;;;;;;10.28;100.00;101220.19;5028229;28;20152;-84
2022/10/13 04:28:28;;;;;;;18.60;13.93;;;;;;;10.25;100.00;101215.22;5028711;28;20075;-85
2022/10/13 04:30:53;;;;;;;24.83;13.85;;;;;;;10.21;100.00;101216.41;5010634;28;20033;-85
2022/10/13 04:33:19;;;;;;;28.33;15.90;;;;;;;10.18;100.00;101208.81;5028038;28;20145;-85
2022/10/13 04:35:44;;;;;;;20.50;15.00;;;;;;;10.24;100.00;101213.56;5009928;28;20048;-85
2022/10/13 04:38:09;;;;;;;18.10;14.25;;;;;;;10.33;100.00;101218.97;5027759;28;20116;-85
2022/10/13 04:40:35;;;;;;;20.45;14.80;;;;;;;10.30;100.00;101218.28;5027869;28;20033;-85
2022/10/13 04:43:00;;;;;;;21.80;14.73;;;;;;;10.25;100.00;101217.81;5028255;28;20097;-85
2022/10/13 04:45:26;;;;;;;17.23;13.60;;;;;;;10.19;100.00;101215.72;5010998;28;20036;-85
2022/10/13 04:47:51;;;;;;;18.70;13.93;;;;;;;10.17;100.00;101220.19;5028487;28;20056;-84
2022/10/13 04:50:18;;;;;;;27.70;15.35;;;;;;;10.12;100.00;101209.31;5028355;28;20112;-84
2022/10/13 04:52:43;;;;;;;18.00;14.18;;;;;;;10.10;100.00;101213.81;5028735;28;20105;-84
2022/10/13 04:55:09;;;;;;;17.40;14.38;;;;;;;10.07;100.00;101211.44;5028167;28;20026;-84
2022/10/13 04:57:34;;;;;;;18.23;14.00;;;;;;;10.01;100.00;101211.94;5009882;28;20026;-84
2022/10/13 05:00:00;;;;;;;22.77;15.65;;;;;;;9.99;100.00;101211.22;5010650;28;20124;-86
2022/10/13 05:02:26;;;;;;;21.80;15.07;;;;;;;10.00;100.00;101215.50;5028951;28;20018;-84
2022/10/13 05:04:51;;;;;;;20.98;14.75;;;;;;;9.99;100.00;101219.88;5028305;28;20029;-84
2022/10/13 05:07:16;;;;;;;19.10;14.05;;;;;;;9.97;100.00;101213.13;5010176;28;20032;-85
2022/10/13 05:09:42;;;;;;;20.45;13.75;;;;;;;9.98;100.00;101220.00;5030446;28;20479;-84
2022/10/13 05:12:07;;;;;;;22.00;14.30;;;;;;;9.96;100.00;101221.88;5032427;28;20083;-84
2022/10/13 05:14:33;;;;;;;23.10;15.27;;;;;;;9.94;100.00;101223.78;5032181;28;20165;-84
2022/10/13 05:16:59;;;;;;;24.10;15.57;;;;;;;9.94;100.00;101221.19;5014105;28;20025;-84
2022/10/13 05:19:25;;;;;;;24.52;16.10;;;;;;;9.96;100.00;101230.53;5032489;28;20044;-84
2022/10/13 05:21:50;;;;;;;22.30;15.15;;;;;;;9.97;100.00;101226.16;5032978;28;20104;-84
2022/10/13 05:24:16;;;;;;;23.55;14.48;;;;;;;9.97;100.00;101228.75;5014485;28;20037;-84
2022/10/13 05:26:41;;;;;;;19.92;13.48;;;;;;;9.96;100.00;101224.50;5013702;28;20033;-84
2022/10/13 05:29:07;;;;;;;24.40;15.60;;;;;;;9.97;100.00;101226.16;5031853;28;20033;-84
2022/10/13 05:31:33;;;;;;;22.27;15.30;;;;;;;9.97;100.00;101226.97;5013462;28;20037;-83
2022/10/13 05:34:00;;;;;;;23.02;16.30;;;;;;;9.97;100.00;101219.16;5012050;22;20485;-67
2022/10/13 05:36:31;;;;;;;23.38;16.83;;;;;;;10.01;100.00;101224.97;5008955;28;20049;-63
2022/10/13 05:38:59;;;;;;;22.63;15.68;;;;;;;10.07;100.00;101229.69;5006073;28;20123;-65
2022/10/13 05:41:26;;;;;;;20.77;14.50;;;;;;;10.08;100.00;101223.53;5008468;28;20216;-68
2022/10/13 05:44:05;;;;;;;19.60;16.35;;;;;;;10.09;100.00;101213.94;5007530;28;20037;-66
2022/10/13 05:46:31;;;;;;;22.90;15.73;;;;;;;10.08;100.00;101227.91;5008810;28;22159;-64
2022/10/13 05:48:56;;;;;;;22.67;17.42;;;;;;;10.10;100.00;101224.22;5008447;28;20123;-66
2022/10/13 05:51:29;;;;;;;23.75;17.27;;;;;;;10.13;100.00;101223.97;5008926;28;20037;-65
2022/10/13 05:54:01;;;;;;;25.38;17.40;;;;;;;10.34;100.00;101223.25;5007836;28;20040;-67
2022/10/13 05:56:35;;;;;;;22.33;15.82;;;;;;;10.41;100.00;101222.59;5008472;28;20044;-67
2022/10/13 05:59:04;;;;;;;22.05;16.63;;;;;;;10.41;100.00;101225.19;5008362;28;20080;-66
2022/10/13 06:01:33;;;;;;;25.85;16.30;;;;;;;10.39;100.00;101228.91;5007323;28;20091;-64
2022/10/13 06:04:05;;;;;;;27.35;17.05;;;;;;;10.46;100.00;101227.44;5009133;28;20022;-66
2022/10/13 06:06:30;;;;;;;24.63;16.80;;;;;;;10.53;100.00;101223.38;5006001;28;20076;-65
2022/10/13 06:08:56;;;;;;;22.90;16.33;;;;;;;10.57;100.00;101230.81;5006760;28;20030;-67
2022/10/13 06:11:22;;;;;;;24.58;17.60;;;;;;;10.60;100.00;101225.34;5006818;28;20189;-65
2022/10/13 06:13:47;;;;;;;27.30;16.95;;;;;;;10.66;100.00;101229.25;5009459;28;20030;-66
2022/10/13 06:16:12;;;;;;;28.48;18.27;;;;;;;10.76;100.00;101224.09;5008989;28;20030;-68
2022/10/13 06:18:38;;;;;;;25.10;17.77;;;;;;;10.82;100.00;101229.63;5008202;28;20184;-67
2022/10/13 06:21:03;;;;;;;24.75;18.33;;;;;;;10.87;100.00;101226.66;5008671;28;20053;-68
2022/10/13 06:23:29;;;;;;;25.15;18.23;;;;;;;10.98;100.00;101224.78;5008944;28;20112;-65
2022/10/13 06:25:54;;;;;;;26.02;17.70;;;;;;;11.11;100.00;101219.34;5009333;28;20070;-65
2022/10/13 06:28:20;;;;;;;23.30;17.15;;;;;;;11.24;100.00;101216.53;5008028;28;20596;-68
2022/10/13 06:30:52;;;;;;;23.30;15.73;;;;;;;11.37;100.00;101214.50;5007277;28;20177;-66
2022/10/13 06:33:19;;;;;;;25.75;17.10;;;;;;;11.49;100.00;101213.47;5005542;28;20042;-67
2022/10/13 06:35:44;;;;;;;26.02;19.42;;;;;;;11.61;100.00;101220.25;5006668;28;20391;-65
2022/10/13 06:38:10;;;;;;;25.27;17.83;;;;;;;11.80;100.00;101216.06;5007619;28;20061;-66
2022/10/13 06:40:36;;;;;;;23.42;16.45;;;;;;;11.91;100.00;101221.16;5007502;28;20022;-69
2022/10/13 06:43:02;;;;;;;25.83;17.50;;;;;;;11.99;100.00;101220.47;5007568;28;20461;-68
2022/10/13 06:45:27;;;;;;;27.38;16.98;;;;;;;12.06;100.00;101221.59;5008472;28;20030;-67
2022/10/13 06:47:54;;;;;;;24.83;16.15;;;;;;;12.16;100.00;101220.66;5004643;28;20053;-68
2022/10/13 06:50:20;;;;;;;21.73;16.25;;;;;;;12.30;100.00;101217.63;5008334;28;20022;-65
2022/10/13 06:52:45;;;;;;;24.48;16.20;;;;;;;12.37;100.00;101228.34;5007456;28;20029;-66
2022/10/13 06:55:11;;;;;;;23.42;14.20;;;;;;;12.44;100.00;101220.78;5007122;28;20120;-64
2022/10/13 06:57:37;;;;;;;17.58;14.77;;;;;;;12.53;100.00;101214.72;5005662;28;20038;-63
2022/10/13 07:00:04;;;;;;;25.42;14.55;;;;;;;12.64;100.00;101211.97;5006594;28;20025;-68
2022/10/13 07:02:29;;;;;;;24.25;14.18;;;;;;;12.75;100.00;101208.38;5006506;28;20033;-70
2022/10/13 07:04:55;;;;;;;23.85;15.40;;;;;;;12.91;100.00;101212.03;5005988;28;20030;-71
2022/10/13 07:07:20;;;;;;;20.17;14.30;;;;;;;12.99;100.00;101211.34;5007006;28;20566;-67
2022/10/13 07:09:45;;;;;;;22.10;15.15;;;;;;;13.13;100.00;101212.69;5006931;28;20030;-68
2022/10/13 07:12:12;;;;;;;22.13;14.60;;;;;;;13.19;100.00;101218.19;5004795;28;20438;-67
2022/10/13 07:14:38;;;;;;;20.25;15.75;;;;;;;13.27;100.00;101218.28;5006124;28;20021;-67
2022/10/13 07:17:04;;;;;;;19.60;14.68;;;;;;;13.33;100.00;101214.28;5004613;28;20461;-66
2022/10/13 07:19:29;;;;;;;20.75;15.43;;;;;;;13.37;100.00;101217.44;5005627;28;20030;-71
2022/10/13 07:21:55;;;;;;;19.23;13.43;;;;;;;13.64;100.00;101220.06;5006557;28;20049;-70
2022/10/13 07:24:21;;;;;;;24.10;13.32;;;;;;;13.78;100.00;101213.50;5007620;28;20034;-71
2022/10/13 07:26:47;;;;;;;22.55;12.93;;;;;;;13.92;100.00;101220.84;5005692;28;20087;-70
2022/10/13 07:29:13;;;;;;;17.30;12.73;;;;;;;13.97;100.00;101207.31;5002921;28;20064;-69
2022/10/13 07:31:38;;;;;;;17.98;13.63;;;;;;;14.05;100.00;101213.47;5005442;28;20040;-70
2022/10/13 07:34:04;;;;;;;27.65;14.65;;;;;;;14.14;100.00;101215.19;5006359;28;20426;-71
2022/10/13 07:36:31;;;;;;;21.92;12.80;;;;;;;14.32;100.00;101211.72;5006345;28;20022;-70
2022/10/13 07:38:57;;;;;;;19.35;14.38;;;;;;;14.38;100.00;101211.94;5003502;28;20034;-67
2022/10/13 07:41:23;;;;;;;19.00;13.55;;;;;;;14.43;100.00;101204.50;5006875;28;20508;-69
2022/10/13 07:43:52;;;;;;;19.55;12.43;;;;;;;14.42;100.00;101208.09;5003458;28;20496;-70
2022/10/13 07:46:18;;;;;;;13.23;11.82;;;;;;;14.38;100.00;101205.88;4992935;28;20026;-68
2022/10/13 07:48:43;;;;;;;25.80;13.50;;;;;;;14.45;100.00;101206.97;5000560;28;20041;-69
2022/10/13 07:51:11;;;;;;;18.30;13.20;;;;;;;14.70;99.74;101197.47;4998641;28;20651;-69
2022/10/13 07:53:37;;;;;;;17.55;13.07;;;;;;;15.04;97.22;101200.16;5006045;28;20049;-69
2022/10/13 07:56:05;;;;;;;24.83;13.13;;;;;;;15.10;96.80;101196.91;4994690;28;20030;-69
2022/10/13 07:58:32;;;;;;;18.80;12.50;;;;;;;15.20;96.10;101198.41;5001814;28;20099;-69
2022/10/13 08:00:59;;;;;;;15.40;12.52;;;;;;;15.28;95.51;101202.88;5001397;28;20030;-67
2022/10/13 08:03:25;;;;;;;18.00;13.52;;;;;;;15.33;93.93;101203.25;4999028;28;20022;-69
2022/10/13 08:05:51;;;;;;;20.38;14.20;;;;;;;15.29;94.94;101199.28;5003538;28;20033;-67
2022/10/13 08:08:16;;;;;;;18.15;13.63;;;;;;;15.18;95.84;101199.56;5002018;28;20042;-68
2022/10/13 08:10:41;;;;;;;19.75;12.95;;;;;;;15.17;96.27;101195.28;5005861;28;20141;-67
2022/10/13 08:13:09;;;;;;;19.38;12.48;;;;;;;15.23;95.74;101192.03;5005397;28;20420;-67
2022/10/13 08:15:39;;;;;;;18.00;12.52;;;;;;;15.22;96.42;101195.63;5001302;28;20085;-66
2022/10/13 08:18:04;;;;;;;19.80;15.27;;;;;;;15.17;97.02;101190.03;5000032;28;20034;-68
2022/10/13 08:20:30;;;;;;;22.02;14.63;;;;;;;15.26;95.51;101178.59;5005302;28;20555;-68
2022/10/13 08:22:56;;;;;;;20.80;13.88;;;;;;;15.41;93.88;101184.91;5005719;28;20179;-68
2022/10/13 08:25:21;;;;;;;21.38;14.45;;;;;;;15.49;93.51;101187.56;5003395;28;20088;-69
2022/10/13 08:27:47;;;;;;;17.92;13.32;;;;;;;15.42;93.66;101186.53;5000872;28;20026;-68
2022/10/13 08:30:12;;;;;;;18.25;14.15;;;;;;;15.48;93.12;101191.16;5003374;28;20517;-68
2022/10/13 08:32:38;;;;;;;23.40;15.52;;;;;;;15.52;93.59;101183.78;5003102;28;20397;-69
2022/10/13 08:35:04;;;;;;;18.50;13.63;;;;;;;15.58;93.88;101185.81;5003746;28;20052;-68
2022/10/13 08:37:29;;;;;;;18.63;14.73;;;;;;;15.62;94.46;101181.88;5002601;28;20042;-68
2022/10/13 08:39:55;;;;;;;19.00;14.18;;;;;;;15.68;94.01;101181.22;5001972;28;20075;-70
2022/10/13 08:42:21;;;;;;;24.92;14.70;;;;;;;15.79;92.99;101180.09;4999309;28;20100;-68
2022/10/13 08:44:54;;;;;;;20.27;14.48;;;;;;;15.83;92.59;101173.56;5002125;28;20030;-74
2022/10/13 08:47:28;;;;;;;17.88;14.23;;;;;;;15.99;90.78;101173.59;5001572;28;20065;-70
2022/10/13 08:49:56;;;;;;;17.67;14.52;;;;;;;16.05;90.64;101175.56;4998441;28;20033;-71
2022/10/13 08:52:25;;;;;;;18.08;14.68;;;;;;;15.99;91.59;101178.84;5001757;28;20030;-74
2022/10/13 08:54:52;;;;;;;22.17;14.13;;;;;;;16.02;91.07;101170.63;5004126;28;20030;-73
2022/10/13 08:57:18;;;;;;;18.15;13.50;;;;;;;16.12;90.71;101173.06;5004766;28;20168;-71
2022/10/13 08:59:44;;;;;;;17.13;13.10;;;;;;;16.17;90.34;101165.53;4996449;28;20396;-69
2022/10/13 09:02:13;;;;;;;16.23;13.82;;;;;;;16.29;89.12;101179.19;5002131;28;20026;-69
2022/10/13 09:04:41;;;;;;;18.25;14.13;;;;;;;16.28;89.36;101175.72;4997481;28;20103;-70
2022/10/13 09:07:25;;;;;;;19.80;14.27;;;;;;;16.20;88.64;101176.53;5003254;28;20025;-70
2022/10/13 09:09:52;;;;;;;16.48;14.40;;;;;;;16.32;89.34;101178.84;4999960;28;20034;-69
2022/10/13 09:12:22;;;;;;;18.73;13.57;;;;;;;16.36;89.64;101180.16;5000836;28;20030;-69
2022/10/13 09:15:09;;;;;;;16.77;13.90;;;;;;;16.40;89.34;101166.53;4999974;28;20112;-70
2022/10/13 09:17:36;;;;;;;17.90;13.35;;;;;;;16.39;89.57;101175.41;4995396;28;20458;-70
2022/10/13 09:20:01;;;;;;;20.58;14.50;;;;;;;16.42;89.65;101169.00;4999670;28;20370;-70
2022/10/13 09:22:39;;;;;;;18.70;14.23;;;;;;;16.42;89.78;101166.38;5002004;28;20065;-70
2022/10/13 09:25:08;;;;;;;16.63;13.75;;;;;;;16.48;90.10;101168.34;4999414;28;20085;-70
2022/10/13 09:27:50;;;;;;;16.05;12.38;;;;;;;16.48;89.15;101163.06;5003281;28;20034;-70
2022/10/13 09:30:48;;;;;;;14.23;11.88;;;;;;;16.54;88.07;101162.41;5002831;28;20416;-69
2022/10/13 09:33:23;;;;;;;15.73;13.15;;;;;;;16.56;88.00;101160.41;5005708;28;20457;-70
2022/10/13 09:35:57;;;;;;;14.45;12.90;;;;;;;16.66;87.03;101149.75;5005597;28;20072;-70
2022/10/13 09:38:24;;;;;;;16.30;12.85;;;;;;;16.88;84.21;101149.88;5004736;28;20045;-70
2022/10/13 09:41:05;;;;;;;16.65;12.15;;;;;;;16.95;83.25;101154.44;5000262;28;20037;-70
2022/10/13 09:43:35;;;;;;;14.52;11.45;;;;;;;16.94;83.67;101152.81;5004395;28;20120;-69
2022/10/13 09:46:10;;;;;;;13.80;11.23;;;;;;;17.04;83.48;101156.88;5000310;28;20117;-70
2022/10/13 09:48:38;;;;;;;13.32;10.07;;;;;;;17.04;83.29;101153.41;5003252;28;20092;-69
2022/10/13 09:51:03;;;;;;;12.32;10.10;;;;;;;17.00;83.22;101149.50;5004283;28;20042;-67
2022/10/13 09:53:39;;;;;;;13.85;10.48;;;;;;;16.91;83.72;101149.53;5002746;28;20038;-70
2022/10/13 09:56:20;;;;;;;14.32;10.18;;;;;;;16.94;82.11;101137.84;5005356;28;20037;-68
2022/10/13 09:59:14;;;;;;;11.80;9.68;;;;;;;17.03;79.67;101142.06;5001105;28;20033;-69
2022/10/13 10:01:46;;;;;;;13.68;10.07;;;;;;;17.17;81.33;101138.72;4991178;28;20049;-70
2022/10/13 10:04:19;;;;;;;11.48;9.15;;;;;;;17.16;81.88;101136.25;5004452;28;20042;-69
2022/10/13 10:06:45;;;;;;;11.07;9.07;;;;;;;17.12;81.99;101141.03;5006353;28;20029;-68
2022/10/13 10:09:23;;;;;;;11.15;9.70;;;;;;;17.15;81.85;101137.25;5007647;28;20034;-68
2022/10/13 10:11:52;;;;;;;12.82;9.68;;;;;;;17.17;82.43;101141.34;5009108;28;20049;-68
2022/10/13 10:14:30;;;;;;;13.57;10.45;;;;;;;17.18;83.08;101137.72;5008112;28;20033;-68
2022/10/13 10:17:17;;;;;;;14.32;9.48;;;;;;;17.19;81.40;101128.84;5008974;28;20045;-68
2022/10/13 10:20:06;;;;;;;11.27;9.23;;;;;;;17.20;80.35;101130.47;5008854;28;20112;-68
2022/10/13 10:23:06;;;;;;;10.73;8.73;;;;;;;17.16;79.75;101128.38;5008367;28;20355;-68
2022/10/13 10:25:37;;;;;;;13.60;9.90;;;;;;;17.28;80.04;101137.53;5009379;28;20088;-68
2022/10/13 10:28:25;;;;;;;11.85;8.95;;;;;;;17.36;78.96;101126.13;5007944;28;20030;-69
2022/10/13 10:30:53;;;;;;;11.60;9.18;;;;;;;17.39;78.48;101131.88;5009694;28;20789;-69
2022/10/13 10:33:26;;;;;;;12.02;10.15;;;;;;;17.49;78.34;101127.19;5008782;28;20041;-68
2022/10/13 10:35:56;;;;;;;11.02;9.68;;;;;;;17.58;78.58;101118.25;5007946;28;20042;-68
2022/10/13 10:38:21;;;;;;;13.50;10.55;;;;;;;17.62;79.20;101113.44;5002258;28;20057;-69
2022/10/13 10:40:55;;;;;;;15.15;11.38;;;;;;;17.69;80.10;101111.78;5002557;28;20056;-70
2022/10/13 10:43:25;;;;;;;18.20;11.98;;;;;;;17.68;79.05;101109.34;5006479;28;20233;-69
2022/10/13 10:45:55;;;;;;;13.73;11.43;;;;;;;17.71;78.94;101104.53;5009123;28;20033;-68
2022/10/13 10:48:33;;;;;;;11.77;9.85;;;;;;;17.67;78.46;101102.41;5004502;28;20496;-68
2022/10/13 10:51:00;;;;;;;12.95;10.10;;;;;;;17.74;77.02;101096.28;5007191;28;20084;-68
2022/10/13 10:53:48;;;;;;;12.95;9.18;;;;;;;17.81;73.49;101094.59;5005329;28;20191;-69
2022/10/13 10:56:25;;;;;;;13.80;11.52;;;;;;;17.89;75.25;101085.81;5008367;28;20069;-69
2022/10/13 10:59:03;;;;;;;15.15;10.65;;;;;;;17.91;75.66;101075.91;5011398;28;20121;-68
2022/10/13 11:01:47;;;;;;;14.30;11.25;;;;;;;17.94;76.82;101067.63;5006005;28;20042;-69
2022/10/13 11:04:31;;;;;;;12.35;10.23;;;;;;;18.10;76.42;101077.19;5000498;28;20064;-70
2022/10/13 11:06:58;;;;;;;13.73;10.15;;;;;;;18.23;76.10;101072.13;5001397;28;20486;-68
2022/10/13 11:09:42;;;;;;;10.50;9.40;;;;;;;18.30;74.44;101066.97;5006080;28;20386;-68
2022/10/13 11:12:19;;;;;;;12.65;9.30;;;;;;;18.22;72.86;101063.41;5008054;28;20124;-68